Ellington Field
KEFD : now visible

Airfield :











YOU CAN JOIN US ON...

 
LOGIN :

Register | Disclaimer

   EN    FR    IT 

 









Legend :    VFR   Marginal VFR   IFR   Intensive IFR   Very Intensive IFR
Visi :
Ceiling :
>= 8 km
>= 3000ft
5 to 8 km
1000 to 3000 ft
1500m to 5 km
500 to 1000 ft
800 to 1500m
200 to 500 ft
< 800m
< 200 ft
Symbols :   Thunderstorms  Fog  Heavy snow  Heavy precipitations  Wind > 20 kt






- Airport Elevation : 32 ft


KEFD - Ellington Field

CURRENT METAR :
  • 162150Z 09003KT 10SM SCT250 16/03 A3011

EXPIRED METARs :
  • 162050Z 00000KT 10SM BKN250 17/03 A3011
  • 161950Z 11003KT 10SM SCT250 15/03 A3015

TAF TAF KEFD
Valid from the 16 at 20:00 until the 18 at 02:00 UTC


162000Z 1620/1802 VRB06KT 9999 FEW250 QNH3013INS
BECMG 1717/1718 VRB06KT 9999 FEW040 SCT050 QNH3002INS
BECMG 1723/1724 VRB06KT 9999 BKN030 OVC050 QNH3002INS TX16/1621Z TN06/1709Z



MET'MAP, your aeronautical weather chart ! - Copyright ORBIFLY December 2007 - Disclaimer

ORBIFLY MET'MAP TEAM :

Programming & Development : Alexandra Zaïnal
Concept & Development : Baudouin d'Aumeries
Co-Development & Prog : Marc-Olivier Méhu
Technical & hardware support : Manuel Goepfert

Contact : metmap@orbifly.com




SOURCES & CREDITS :

   NOAA       Earth
Advisory